Time;durP1;ratioP1;P1;durP2;ratioP2;P2;SDS_P1;SDS_P2;PMS_P1;PMS_P2;Temp;Humidity;BMP_temperature;BMP_pressure;BME280_temperature;BME280_humidity;BME280_pressure;Samples;Min_cycle;Max_cycle;Signal;HPM_P1;HPM_P2
2022/12/15 00:38:56;;;;;;;27.23;16.07;;;;;;;;;;5054157;28;20258;-82
2022/12/15 00:41:24;;;;;;;28.77;15.73;;;;;;;;;;5053809;28;20232;-82
2022/12/15 00:43:51;;;;;;;24.97;15.27;;;;;;;;;;5054096;28;20236;-81
2022/12/15 00:50:50;;;;;;;24.93;15.00;;;;;;;;;;5053714;28;20231;-81
2022/12/15 01:22:06;;;;;;;30.07;17.43;;;;;;;;;;5053608;28;20239;-82
2022/12/15 01:24:33;;;;;;;32.93;17.20;;;;;;;;;;5053990;28;20212;-82
2022/12/15 01:27:00;;;;;;;27.13;15.80;;;;;;;;;;5053226;28;20245;-82
2022/12/15 01:29:29;;;;;;;32.87;17.97;;;;;;;;;;5055203;28;20236;-82
2022/12/15 01:31:56;;;;;;;30.97;16.93;;;;;;;;;;5057505;28;20235;-82
2022/12/15 01:34:23;;;;;;;31.57;16.13;;;;;;;;;;5056151;28;20212;-83
2022/12/15 01:36:50;;;;;;;26.53;17.27;;;;;;;;;;5053958;28;20237;-83
2022/12/15 01:39:17;;;;;;;30.90;16.60;;;;;;;;;;5053725;28;20257;-83
2022/12/15 01:41:43;;;;;;;28.00;15.30;;;;;;;;;;5066936;28;20270;-82
2022/12/15 01:44:18;;;;;;;29.50;16.57;;;;;;;;;;5059496;28;20560;-82
2022/12/15 01:46:46;;;;;;;30.87;17.07;;;;;;;;;;5054091;28;20246;-82
2022/12/15 01:49:16;;;;;;;29.13;15.57;;;;;;;;;;5053867;28;20228;-82
2022/12/15 01:51:44;;;;;;;33.63;17.73;;;;;;;;;;5053098;28;20227;-82
2022/12/15 01:54:15;;;;;;;32.43;17.13;;;;;;;;;;5053535;28;20621;-82
2022/12/15 01:56:44;;;;;;;33.97;17.93;;;;;;;;;;5052897;28;20231;-82
2022/12/15 01:59:14;;;;;;;31.43;17.43;;;;;;;;;;5053596;28;20738;-82
2022/12/15 02:01:42;;;;;;;32.17;17.77;;;;;;;;;;5052151;28;20274;-82
2022/12/15 02:04:10;;;;;;;25.10;14.80;;;;;;;;;;5052989;28;20216;-82
2022/12/15 02:06:37;;;;;;;37.10;17.43;;;;;;;;;;5051790;28;20231;-82
2022/12/15 02:09:05;;;;;;;31.57;17.93;;;;;;;;;;5049795;28;20227;-83
2022/12/15 02:11:48;;;;;;;30.17;17.33;;;;;;;;;;5052399;28;20230;-82
2022/12/15 02:14:17;;;;;;;29.17;16.93;;;;;;;;;;5052966;28;20191;-82
2022/12/15 02:16:53;;;;;;;29.27;16.23;;;;;;;;;;5052991;28;20242;-81
2022/12/15 02:19:32;;;;;;;28.20;16.37;;;;;;;;;;5052830;28;20230;-80
2022/12/15 02:22:06;;;;;;;26.93;15.77;;;;;;;;;;5032223;28;20234;-80
2022/12/15 02:24:46;;;;;;;28.63;17.57;;;;;;;;;;5032665;28;20197;-80
2022/12/15 02:27:44;;;;;;;28.23;17.00;;;;;;;;;;5032180;28;20582;-81
2022/12/15 02:30:21;;;;;;;28.17;15.10;;;;;;;;;;5037390;28;20728;-80
2022/12/15 02:32:50;;;;;;;27.30;16.10;;;;;;;;;;5052889;28;20274;-81
2022/12/15 02:35:23;;;;;;;25.30;15.97;;;;;;;;;;5051806;28;20214;-81
2022/12/15 02:37:50;;;;;;;29.57;17.03;;;;;;;;;;5052247;28;20203;-81
2022/12/15 02:40:17;;;;;;;31.50;16.53;;;;;;;;;;5083324;22;20234;-79
2022/12/15 02:42:47;;;;;;;28.37;15.97;;;;;;;;;;5076698;28;20210;-79
2022/12/15 02:45:15;;;;;;;29.53;17.00;;;;;;;;;;5092631;28;20212;-79
2022/12/15 02:47:47;;;;;;;31.40;15.93;;;;;;;;;;5074108;28;20238;-80
2022/12/15 02:50:27;;;;;;;24.93;16.07;;;;;;;;;;5073862;28;20238;-80
2022/12/15 02:52:58;;;;;;;28.60;15.83;;;;;;;;;;5074269;28;20212;-80
2022/12/15 02:55:31;;;;;;;27.90;16.83;;;;;;;;;;5073271;28;20230;-79
2022/12/15 02:58:01;;;;;;;31.53;16.67;;;;;;;;;;5091518;28;20187;-79
2022/12/15 03:00:28;;;;;;;30.00;16.00;;;;;;;;;;5093970;28;20241;-80
2022/12/15 03:02:57;;;;;;;27.20;15.07;;;;;;;;;;5095045;28;20204;-79
2022/12/15 03:05:25;;;;;;;25.97;15.73;;;;;;;;;;5094356;28;20235;-81
2022/12/15 03:07:52;;;;;;;31.07;14.87;;;;;;;;;;5094903;28;20198;-80
2022/12/15 03:10:21;;;;;;;28.50;15.23;;;;;;;;;;5093975;28;20227;-80
2022/12/15 03:12:49;;;;;;;26.73;16.10;;;;;;;;;;5095215;28;20207;-79
2022/12/15 03:15:16;;;;;;;33.83;16.67;;;;;;;;;;5084847;28;20215;-80
2022/12/15 03:17:43;;;;;;;23.70;14.67;;;;;;;;;;5071008;28;20202;-80
2022/12/15 03:20:12;;;;;;;29.17;15.83;;;;;;;;;;5070549;28;20222;-80
2022/12/15 03:22:39;;;;;;;28.10;15.10;;;;;;;;;;5071614;28;20309;-80
2022/12/15 03:25:07;;;;;;;24.93;14.77;;;;;;;;;;5070578;28;20615;-81
2022/12/15 03:27:34;;;;;;;28.37;14.97;;;;;;;;;;5071329;28;20229;-80
2022/12/15 03:30:01;;;;;;;29.00;13.97;;;;;;;;;;5071098;28;20231;-80
2022/12/15 03:32:28;;;;;;;23.47;13.40;;;;;;;;;;5070906;28;20238;-79
2022/12/15 03:34:55;;;;;;;27.67;13.83;;;;;;;;;;5071186;28;20296;-80
2022/12/15 03:37:24;;;;;;;18.57;12.57;;;;;;;;;;5070273;28;20229;-80
2022/12/15 03:39:51;;;;;;;21.83;13.93;;;;;;;;;;5070872;28;20235;-80
2022/12/15 03:42:47;;;;;;;20.60;13.23;;;;;;;;;;5070365;28;20235;-80
2022/12/15 03:45:05;;;;;;;21.57;13.23;;;;;;;;;;5070066;28;20206;-80
2022/12/15 03:47:32;;;;;;;21.53;12.80;;;;;;;;;;5071029;28;20242;-80
2022/12/15 03:49:59;;;;;;;19.80;12.57;;;;;;;;;;5070649;28;20241;-80
2022/12/15 03:52:28;;;;;;;20.30;13.63;;;;;;;;;;5070527;28;20242;-80
2022/12/15 03:54:55;;;;;;;23.03;13.60;;;;;;;;;;5071030;28;20208;-80
2022/12/15 03:57:22;;;;;;;25.30;14.80;;;;;;;;;;5070592;28;20809;-80
2022/12/15 03:59:49;;;;;;;22.00;13.27;;;;;;;;;;5070917;28;20581;-79
2022/12/15 04:02:16;;;;;;;20.73;13.97;;;;;;;;;;5070431;28;20337;-80
2022/12/15 04:04:43;;;;;;;26.33;14.47;;;;;;;;;;5070746;28;20620;-79
2022/12/15 04:07:11;;;;;;;21.00;13.80;;;;;;;;;;5071488;28;20231;-78
2022/12/15 04:09:39;;;;;;;25.87;13.23;;;;;;;;;;5071563;28;20229;-80
2022/12/15 04:12:06;;;;;;;24.27;13.17;;;;;;;;;;5073093;28;20714;-79
2022/12/15 04:14:33;;;;;;;26.53;14.30;;;;;;;;;;5074777;28;20202;-80
2022/12/15 04:17:00;;;;;;;23.43;14.07;;;;;;;;;;5073911;28;20229;-80
2022/12/15 04:22:12;;;;;;;21.87;13.83;;;;;;;;;;5073828;28;20323;-80
2022/12/15 05:33:26;;;;;;;28.83;12.40;;;;;;;;;;5073168;28;20196;-81
2022/12/15 05:35:53;;;;;;;20.03;13.23;;;;;;;;;;5072589;28;20233;-81
2022/12/15 05:38:20;;;;;;;20.27;11.27;;;;;;;;;;5072711;28;20212;-81
2022/12/15 05:40:47;;;;;;;25.03;14.90;;;;;;;;;;5072618;28;20237;-82
2022/12/15 05:43:14;;;;;;;17.17;11.40;;;;;;;;;;5072778;28;20210;-81
2022/12/15 05:45:42;;;;;;;21.20;13.13;;;;;;;;;;5072591;28;20236;-81
2022/12/15 05:48:09;;;;;;;23.33;12.90;;;;;;;;;;5072177;28;20230;-81
2022/12/15 05:50:36;;;;;;;19.60;12.80;;;;;;;;;;5072150;28;20236;-82
2022/12/15 05:53:03;;;;;;;21.60;14.27;;;;;;;;;;5071928;28;20208;-81
2022/12/15 05:55:31;;;;;;;17.80;12.27;;;;;;;;;;5072369;28;20712;-81
2022/12/15 05:57:58;;;;;;;20.77;14.00;;;;;;;;;;5072555;28;20677;-82
2022/12/15 06:00:25;;;;;;;21.67;12.17;;;;;;;;;;5071102;28;20686;-82
2022/12/15 06:02:53;;;;;;;21.87;13.40;;;;;;;;;;5072718;28;20583;-82
2022/12/15 06:05:20;;;;;;;20.50;12.63;;;;;;;;;;5072009;28;20201;-82
2022/12/15 06:07:47;;;;;;;18.87;13.03;;;;;;;;;;5071895;28;20225;-82
2022/12/15 06:10:14;;;;;;;20.93;12.57;;;;;;;;;;5071645;28;20226;-82
2022/12/15 06:12:41;;;;;;;22.50;12.90;;;;;;;;;;5072586;28;20739;-83
2022/12/15 06:15:09;;;;;;;21.93;12.67;;;;;;;;;;5072316;28;20795;-83
2022/12/15 06:17:36;;;;;;;20.77;12.03;;;;;;;;;;5072639;28;20205;-83
2022/12/15 06:20:05;;;;;;;17.07;12.87;;;;;;;;;;5071943;28;20232;-83
2022/12/15 06:22:32;;;;;;;23.67;12.73;;;;;;;;;;5072876;28;20205;-83
2022/12/15 06:24:59;;;;;;;22.57;12.27;;;;;;;;;;5073251;28;20815;-83
2022/12/15 06:27:26;;;;;;;27.70;12.93;;;;;;;;;;5093996;28;20241;-82
2022/12/15 06:29:53;;;;;;;22.00;13.83;;;;;;;;;;5097456;28;20212;-82
2022/12/15 06:32:20;;;;;;;20.23;13.93;;;;;;;;;;5096470;28;20211;-82
2022/12/15 06:34:48;;;;;;;20.23;12.77;;;;;;;;;;5095709;28;20185;-83
2022/12/15 06:37:17;;;;;;;26.93;13.83;;;;;;;;;;5094254;28;20229;-83
2022/12/15 06:39:44;;;;;;;20.77;13.23;;;;;;;;;;5090151;28;20229;-80
2022/12/15 06:42:13;;;;;;;20.30;13.33;;;;;;;;;;5066170;28;20450;-83
2022/12/15 06:44:40;;;;;;;19.80;12.57;;;;;;;;;;5079168;28;20201;-83
2022/12/15 06:47:07;;;;;;;19.00;12.20;;;;;;;;;;5075797;28;20232;-83
2022/12/15 06:49:34;;;;;;;18.23;11.83;;;;;;;;;;5060405;28;20221;-82
2022/12/15 06:52:01;;;;;;;19.97;12.13;;;;;;;;;;5052773;28;20237;-82
2022/12/15 06:54:30;;;;;;;25.43;14.53;;;;;;;;;;5052003;28;20721;-83
2022/12/15 06:56:57;;;;;;;26.57;13.17;;;;;;;;;;5067087;28;20244;-85
2022/12/15 06:59:24;;;;;;;20.23;12.53;;;;;;;;;;5073467;28;20221;-85
2022/12/15 07:01:51;;;;;;;18.97;13.60;;;;;;;;;;5072057;28;20242;-81
2022/12/15 07:04:18;;;;;;;23.87;12.60;;;;;;;;;;5072376;28;20245;-81
2022/12/15 07:06:45;;;;;;;20.37;12.50;;;;;;;;;;5072005;28;20241;-81
2022/12/15 07:09:16;;;;;;;21.57;12.70;;;;;;;;;;5071677;28;20228;-81
2022/12/15 07:11:48;;;;;;;21.97;13.13;;;;;;;;;;5071775;28;20241;-80
2022/12/15 07:14:15;;;;;;;24.70;13.20;;;;;;;;;;5072343;28;20195;-83
2022/12/15 07:16:42;;;;;;;25.60;15.40;;;;;;;;;;5073068;28;20259;-84
2022/12/15 07:19:11;;;;;;;24.80;13.90;;;;;;;;;;5073359;28;20212;-82
2022/12/15 07:21:39;;;;;;;20.20;13.10;;;;;;;;;;5073897;28;20319;-81
2022/12/15 07:24:07;;;;;;;27.37;14.17;;;;;;;;;;5073040;28;20213;-82
2022/12/15 07:26:34;;;;;;;21.07;14.17;;;;;;;;;;5068632;28;20229;-82
2022/12/15 07:29:03;;;;;;;25.13;14.33;;;;;;;;;;5070127;28;20296;-82
2022/12/15 07:31:30;;;;;;;23.47;14.03;;;;;;;;;;5070706;28;20233;-82
2022/12/15 07:33:59;;;;;;;20.80;13.57;;;;;;;;;;5072780;28;20206;-81
2022/12/15 07:36:27;;;;;;;19.47;13.40;;;;;;;;;;5071289;28;20240;-81
2022/12/15 07:38:57;;;;;;;22.03;13.80;;;;;;;;;;5072789;28;20673;-82
2022/12/15 07:41:24;;;;;;;29.80;13.63;;;;;;;;;;5071554;28;20262;-82
2022/12/15 07:43:52;;;;;;;19.90;13.93;;;;;;;;;;5083961;28;20201;-81
2022/12/15 07:46:20;;;;;;;21.57;13.37;;;;;;;;;;5092875;28;20255;-82
2022/12/15 07:48:48;;;;;;;23.40;13.53;;;;;;;;;;5095287;28;20229;-83
2022/12/15 07:51:15;;;;;;;20.87;12.90;;;;;;;;;;5094827;28;20282;-83
2022/12/15 07:53:42;;;;;;;20.13;14.10;;;;;;;;;;5095440;28;20306;-83
2022/12/15 07:56:09;;;;;;;23.73;13.17;;;;;;;;;;5094455;28;20232;-83
2022/12/15 07:58:36;;;;;;;20.57;14.13;;;;;;;;;;5094824;28;20209;-83
2022/12/15 08:01:04;;;;;;;24.17;14.37;;;;;;;;;;5094983;28;20247;-81
2022/12/15 08:03:33;;;;;;;24.90;14.70;;;;;;;;;;5095107;28;20208;-81
2022/12/15 08:06:03;;;;;;;23.73;13.80;;;;;;;;;;5094274;28;20233;-81
2022/12/15 08:08:31;;;;;;;24.47;14.13;;;;;;;;;;5094483;28;20305;-82
2022/12/15 08:10:58;;;;;;;26.50;15.23;;;;;;;;;;5094389;28;20248;-82
2022/12/15 08:13:25;;;;;;;26.37;15.00;;;;;;;;;;5094561;28;20204;-82
2022/12/15 08:15:54;;;;;;;28.33;14.87;;;;;;;;;;5094224;28;20609;-82
2022/12/15 08:18:21;;;;;;;26.47;16.70;;;;;;;;;;5094287;28;20552;-82
2022/12/15 08:20:49;;;;;;;24.03;15.97;;;;;;;;;;5094025;28;20243;-81
2022/12/15 08:23:17;;;;;;;28.93;17.00;;;;;;;;;;5094193;28;20715;-81
2022/12/15 08:25:44;;;;;;;29.10;16.27;;;;;;;;;;5094505;28;20244;-82
2022/12/15 08:28:11;;;;;;;26.93;16.47;;;;;;;;;;5093830;28;20224;-82
2022/12/15 08:30:38;;;;;;;29.43;15.97;;;;;;;;;;5093972;28;20290;-82
2022/12/15 08:33:06;;;;;;;30.20;17.73;;;;;;;;;;5094501;28;20208;-82
2022/12/15 08:35:33;;;;;;;34.07;18.57;;;;;;;;;;5093803;28;20289;-82
2022/12/15 08:38:02;;;;;;;29.93;16.10;;;;;;;;;;5073129;28;20202;-82
2022/12/15 08:40:30;;;;;;;26.20;15.83;;;;;;;;;;5088813;22;20229;-81
2022/12/15 08:42:57;;;;;;;24.83;16.33;;;;;;;;;;5085859;28;20200;-83
2022/12/15 08:45:24;;;;;;;27.50;16.40;;;;;;;;;;5093634;28;20275;-81
2022/12/15 08:47:51;;;;;;;29.43;17.50;;;;;;;;;;5094446;28;20224;-81
2022/12/15 08:50:18;;;;;;;38.97;19.33;;;;;;;;;;5093972;28;20224;-82
2022/12/15 08:52:45;;;;;;;39.80;18.30;;;;;;;;;;5094405;28;20204;-82
2022/12/15 08:55:14;;;;;;;35.70;18.27;;;;;;;;;;5093300;28;20216;-82
2022/12/15 08:57:41;;;;;;;44.47;20.37;;;;;;;;;;5092007;28;20668;-82
2022/12/15 09:00:09;;;;;;;29.87;14.87;;;;;;;;;;5093375;28;20553;-82
2022/12/15 09:02:36;;;;;;;34.20;19.20;;;;;;;;;;5094044;28;20197;-81
2022/12/15 09:05:05;;;;;;;38.97;19.97;;;;;;;;;;5093229;28;20209;-82
2022/12/15 09:07:32;;;;;;;38.20;18.53;;;;;;;;;;5094053;28;20315;-82
2022/12/15 09:09:59;;;;;;;42.30;18.90;;;;;;;;;;5093661;28;20316;-81
2022/12/15 09:12:27;;;;;;;54.37;21.00;;;;;;;;;;5093282;28;20228;-82
2022/12/15 09:14:54;;;;;;;49.83;19.97;;;;;;;;;;5095846;28;20258;-82
2022/12/15 09:17:22;;;;;;;45.57;19.67;;;;;;;;;;5093457;28;20224;-80
2022/12/15 09:19:49;;;;;;;46.93;19.90;;;;;;;;;;5093747;28;20293;-80
2022/12/15 09:22:16;;;;;;;40.60;20.43;;;;;;;;;;5093319;28;20243;-81
2022/12/15 09:24:43;;;;;;;55.20;21.93;;;;;;;;;;5093887;28;20204;-81
2022/12/15 09:27:10;;;;;;;47.70;22.87;;;;;;;;;;5092538;28;20244;-81
2022/12/15 09:29:38;;;;;;;53.50;22.50;;;;;;;;;;5087958;28;20193;-81
2022/12/15 09:32:06;;;;;;;57.20;23.17;;;;;;;;;;5074082;28;20250;-81
2022/12/15 09:34:33;;;;;;;49.13;21.97;;;;;;;;;;5073125;28;20210;-81
2022/12/15 09:37:00;;;;;;;46.43;20.57;;;;;;;;;;5072626;28;20791;-80
2022/12/15 09:39:27;;;;;;;39.83;19.37;;;;;;;;;;5072547;28;20206;-81
2022/12/15 09:41:56;;;;;;;48.77;22.70;;;;;;;;;;5072516;28;20241;-80
2022/12/15 09:44:24;;;;;;;50.73;21.80;;;;;;;;;;5072795;28;20211;-81
2022/12/15 09:46:58;;;;;;;52.50;21.53;;;;;;;;;;5072337;28;20238;-81
2022/12/15 09:49:35;;;;;;;50.93;23.87;;;;;;;;;;5072046;28;20230;-81
2022/12/15 09:52:04;;;;;;;57.57;25.50;;;;;;;;;;5072327;28;20242;-80
2022/12/15 09:54:33;;;;;;;51.53;23.43;;;;;;;;;;5072726;28;20214;-81
2022/12/15 09:57:02;;;;;;;47.67;24.07;;;;;;;;;;5072146;28;20226;-81
2022/12/15 09:59:32;;;;;;;51.27;23.13;;;;;;;;;;5072391;28;20205;-82
2022/12/15 10:02:07;;;;;;;52.10;23.03;;;;;;;;;;5075418;28;20224;-82
2022/12/15 10:04:39;;;;;;;50.77;25.27;;;;;;;;;;5092393;28;20189;-82
2022/12/15 10:07:08;;;;;;;55.57;26.60;;;;;;;;;;5091919;28;20239;-82
2022/12/15 10:09:37;;;;;;;57.77;24.23;;;;;;;;;;5092036;28;20241;-82
2022/12/15 10:12:07;;;;;;;59.00;25.57;;;;;;;;;;5091548;28;20249;-82
2022/12/15 10:14:38;;;;;;;55.23;24.33;;;;;;;;;;5092923;28;20666;-82
2022/12/15 10:17:15;;;;;;;58.53;22.30;;;;;;;;;;5091939;28;20709;-82
2022/12/15 10:19:46;;;;;;;43.77;22.30;;;;;;;;;;5092091;28;20598;-82
2022/12/15 10:22:14;;;;;;;36.47;18.90;;;;;;;;;;5091137;28;20245;-82
2022/12/15 10:24:41;;;;;;;52.23;24.83;;;;;;;;;;5092351;28;20206;-82
2022/12/15 10:27:20;;;;;;;37.27;20.27;;;;;;;;;;5091707;28;20233;-82
2022/12/15 10:29:47;;;;;;;50.37;24.03;;;;;;;;;;5091728;28;20570;-82
2022/12/15 10:32:18;;;;;;;52.40;26.40;;;;;;;;;;5091489;28;20697;-82
2022/12/15 10:34:46;;;;;;;64.77;30.57;;;;;;;;;;5092220;28;20202;-82
2022/12/15 10:37:14;;;;;;;52.23;24.23;;;;;;;;;;5091532;28;20234;-82
2022/12/15 10:39:42;;;;;;;50.23;24.53;;;;;;;;;;5092132;28;20227;-82
2022/12/15 10:42:11;;;;;;;61.13;26.00;;;;;;;;;;5090836;28;20236;-82
2022/12/15 10:44:40;;;;;;;48.00;23.60;;;;;;;;;;5092197;28;20577;-82
2022/12/15 10:47:09;;;;;;;47.03;22.83;;;;;;;;;;5090940;28;20260;-82
2022/12/15 10:49:38;;;;;;;35.93;20.30;;;;;;;;;;5091606;28;20224;-82
2022/12/15 10:52:05;;;;;;;42.40;20.53;;;;;;;;;;5091330;28;20235;-82
2022/12/15 10:54:35;;;;;;;40.40;19.47;;;;;;;;;;5091567;28;20192;-82
2022/12/15 10:57:15;;;;;;;38.93;19.87;;;;;;;;;;5090788;28;20254;-82
2022/12/15 10:59:42;;;;;;;41.80;21.80;;;;;;;;;;5090721;28;20200;-82
2022/12/15 11:02:24;;;;;;;41.30;22.57;;;;;;;;;;5089450;28;20251;-82
2022/12/15 11:04:56;;;;;;;35.97;17.43;;;;;;;;;;5091248;28;20212;-82
2022/12/15 11:07:24;;;;;;;40.33;20.37;;;;;;;;;;5090598;28;20236;-82
2022/12/15 11:09:58;;;;;;;38.17;21.57;;;;;;;;;;5089222;28;20228;-83
2022/12/15 11:15:28;;;;;;;35.00;20.93;;;;;;;;;;5090650;28;20196;-82
2022/12/15 11:17:58;;;;;;;34.43;18.27;;;;;;;;;;5090688;28;20200;-82
2022/12/15 11:20:30;;;;;;;33.17;20.43;;;;;;;;;;5089779;28;20293;-82
2022/12/15 11:22:59;;;;;;;38.53;20.80;;;;;;;;;;5090867;28;20200;-82
2022/12/15 11:25:29;;;;;;;36.73;20.27;;;;;;;;;;5085509;28;20247;-82
2022/12/15 11:27:58;;;;;;;34.00;18.57;;;;;;;;;;5085389;28;20223;-82
2022/12/15 11:30:25;;;;;;;37.43;20.67;;;;;;;;;;5077479;28;20248;-82
2022/12/15 11:32:54;;;;;;;36.43;21.10;;;;;;;;;;5070807;28;20216;-82
2022/12/15 11:35:26;;;;;;;32.20;18.73;;;;;;;;;;5074788;28;20215;-82
2022/12/15 11:37:57;;;;;;;37.80;20.70;;;;;;;;;;5081818;28;20548;-82
2022/12/15 11:40:30;;;;;;;37.13;20.00;;;;;;;;;;5070163;28;20256;-82
2022/12/15 11:43:18;;;;;;;34.20;19.00;;;;;;;;;;5071052;28;20213;-82
2022/12/15 11:45:50;;;;;;;32.40;19.83;;;;;;;;;;5069959;28;20294;-82
2022/12/15 11:48:18;;;;;;;31.23;18.27;;;;;;;;;;5070555;28;20217;-81
2022/12/15 11:50:51;;;;;;;32.00;18.80;;;;;;;;;;5088430;28;20247;-80
2022/12/15 11:53:23;;;;;;;39.00;21.00;;;;;;;;;;5070815;28;20201;-80
2022/12/15 11:55:53;;;;;;;41.23;19.30;;;;;;;;;;5070418;28;20244;-81
2022/12/15 11:58:27;;;;;;;36.50;20.00;;;;;;;;;;5070388;28;20604;-80
2022/12/15 12:01:01;;;;;;;39.97;20.77;;;;;;;;;;5070269;28;20237;-81
2022/12/15 12:03:34;;;;;;;34.07;19.30;;;;;;;;;;5070569;28;20664;-80
2022/12/15 12:06:07;;;;;;;32.07;17.90;;;;;;;;;;5070293;28;20241;-81
2022/12/15 12:08:46;;;;;;;31.33;19.67;;;;;;;;;;5070325;28;20216;-80
2022/12/15 12:11:15;;;;;;;35.00;20.70;;;;;;;;;;5069726;28;20252;-81
2022/12/15 12:13:49;;;;;;;29.43;18.50;;;;;;;;;;5070950;28;20243;-80
2022/12/15 12:16:24;;;;;;;31.50;19.20;;;;;;;;;;5075322;28;20241;-81
2022/12/15 12:18:55;;;;;;;27.67;16.90;;;;;;;;;;5072189;28;20193;-81
2022/12/15 12:21:25;;;;;;;31.37;18.80;;;;;;;;;;5089955;28;20248;-81
2022/12/15 12:23:57;;;;;;;19.80;12.93;;;;;;;;;;5090795;28;20209;-80
2022/12/15 12:26:26;;;;;;;32.97;18.77;;;;;;;;;;5090102;28;20244;-81
2022/12/15 12:28:57;;;;;;;33.70;17.57;;;;;;;;;;5090191;28;20229;-81
2022/12/15 12:31:29;;;;;;;32.13;18.73;;;;;;;;;;5090254;28;20338;-81
2022/12/15 12:33:59;;;;;;;35.37;19.67;;;;;;;;;;5094203;28;20193;-81
2022/12/15 12:36:26;;;;;;;34.67;19.10;;;;;;;;;;5084451;28;20321;-81
2022/12/15 12:38:55;;;;;;;34.83;17.33;;;;;;;;;;5090273;28;20213;-81
2022/12/15 12:41:26;;;;;;;31.70;19.30;;;;;;;;;;5093475;28;20247;-81
2022/12/15 12:43:56;;;;;;;38.13;19.63;;;;;;;;;;5094040;28;20213;-81
2022/12/15 12:46:25;;;;;;;34.33;20.33;;;;;;;;;;5093511;28;20252;-81
2022/12/15 12:48:54;;;;;;;34.30;19.57;;;;;;;;;;5093444;28;20221;-80
2022/12/15 12:51:24;;;;;;;32.97;19.53;;;;;;;;;;5093336;28;20588;-80
2022/12/15 12:53:52;;;;;;;34.70;19.27;;;;;;;;;;5094024;28;20223;-81
2022/12/15 12:56:38;;;;;;;35.90;19.70;;;;;;;;;;5093469;28;20232;-80
2022/12/15 12:59:08;;;;;;;32.23;18.77;;;;;;;;;;5093639;28;20189;-81
2022/12/15 13:01:36;;;;;;;31.23;17.43;;;;;;;;;;5092747;28;20286;-81
2022/12/15 13:04:06;;;;;;;33.63;17.30;;;;;;;;;;5073141;28;20205;-81
2022/12/15 13:06:57;;;;;;;31.57;18.43;;;;;;;;;;5072628;28;20652;-81
2022/12/15 13:09:25;;;;;;;27.50;16.73;;;;;;;;;;5072784;28;20229;-81
2022/12/15 13:12:00;;;;;;;32.97;18.90;;;;;;;;;;5072811;28;20244;-81
2022/12/15 13:14:47;;;;;;;32.07;18.33;;;;;;;;;;5073340;28;20308;-81
2022/12/15 13:17:20;;;;;;;33.17;18.13;;;;;;;;;;5072866;28;20624;-82
2022/12/15 13:20:09;;;;;;;35.87;18.90;;;;;;;;;;5073154;28;20211;-82
2022/12/15 13:22:37;;;;;;;34.47;18.73;;;;;;;;;;5072560;28;20255;-82
2022/12/15 13:25:26;;;;;;;33.40;18.70;;;;;;;;;;5072433;28;20205;-82
2022/12/15 13:27:59;;;;;;;39.53;19.67;;;;;;;;;;5072948;28;20205;-82
2022/12/15 13:30:26;;;;;;;29.87;18.97;;;;;;;;;;5071919;28;20723;-82
2022/12/15 13:32:55;;;;;;;35.83;20.27;;;;;;;;;;5072813;28;20240;-82
2022/12/15 13:35:23;;;;;;;36.03;19.97;;;;;;;;;;5072162;28;20217;-82
2022/12/15 13:37:52;;;;;;;35.90;20.23;;;;;;;;;;5080756;28;20699;-83
2022/12/15 13:40:32;;;;;;;30.13;16.37;;;;;;;;;;5072052;28;20992;-82
2022/12/15 13:43:08;;;;;;;26.67;16.43;;;;;;;;;;5072356;28;20197;-83
2022/12/15 13:45:55;;;;;;;32.57;18.80;;;;;;;;;;5071963;28;20232;-82
2022/12/15 13:48:26;;;;;;;31.03;18.63;;;;;;;;;;5071729;28;20210;-82
2022/12/15 13:50:56;;;;;;;37.00;18.00;;;;;;;;;;5072028;28;20237;-82
2022/12/15 13:53:25;;;;;;;35.53;19.40;;;;;;;;;;5072226;28;20637;-83
2022/12/15 13:55:54;;;;;;;39.23;21.57;;;;;;;;;;5072296;28;20233;-82
2022/12/15 13:58:24;;;;;;;39.27;22.63;;;;;;;;;;5072359;28;20190;-82
2022/12/15 14:00:52;;;;;;;34.87;18.83;;;;;;;;;;5071562;28;20324;-82
2022/12/15 14:03:20;;;;;;;38.27;20.13;;;;;;;;;;5075163;28;20227;-82
2022/12/15 14:05:52;;;;;;;35.40;19.43;;;;;;;;;;5078834;28;20268;-83
2022/12/15 14:08:19;;;;;;;38.27;19.20;;;;;;;;;;5091275;28;20299;-82
2022/12/15 14:10:50;;;;;;;32.20;19.47;;;;;;;;;;5090875;28;20647;-82
2022/12/15 14:13:19;;;;;;;37.33;19.27;;;;;;;;;;5091560;28;20193;-83
2022/12/15 14:15:49;;;;;;;36.57;19.93;;;;;;;;;;5091596;28;20263;-83
2022/12/15 14:18:24;;;;;;;32.47;19.37;;;;;;;;;;5091279;28;20211;-82
2022/12/15 14:20:51;;;;;;;31.20;19.17;;;;;;;;;;5091201;28;20315;-83
2022/12/15 14:23:19;;;;;;;45.87;19.80;;;;;;;;;;5091507;28;20208;-82
2022/12/15 14:25:53;;;;;;;31.50;19.70;;;;;;;;;;5091138;28;20357;-82
2022/12/15 14:28:28;;;;;;;33.30;18.47;;;;;;;;;;5090962;28;20935;-83
2022/12/15 14:30:59;;;;;;;37.00;19.50;;;;;;;;;;5090747;28;20232;-82
2022/12/15 14:33:26;;;;;;;33.90;19.63;;;;;;;;;;5091423;28;20310;-82
2022/12/15 14:35:55;;;;;;;36.50;18.60;;;;;;;;;;5091001;28;20236;-82
2022/12/15 14:38:24;;;;;;;32.30;19.63;;;;;;;;;;5091863;28;20336;-83
2022/12/15 14:40:53;;;;;;;39.03;20.33;;;;;;;;;;5084723;28;20248;-82
2022/12/15 14:43:21;;;;;;;38.23;20.70;;;;;;;;;;5075540;28;20211;-82
2022/12/15 14:45:50;;;;;;;36.70;18.47;;;;;;;;;;5090981;28;20240;-82
2022/12/15 14:48:22;;;;;;;35.77;18.60;;;;;;;;;;5091454;28;20216;-82
2022/12/15 14:50:49;;;;;;;29.70;18.03;;;;;;;;;;5084657;28;20233;-83
2022/12/15 14:53:18;;;;;;;35.47;17.33;;;;;;;;;;5071116;28;20669;-83
2022/12/15 14:55:46;;;;;;;30.77;17.97;;;;;;;;;;5070107;28;20232;-83
2022/12/15 14:58:25;;;;;;;35.00;18.03;;;;;;;;;;5071367;28;20621;-84
2022/12/15 15:00:53;;;;;;;32.70;17.30;;;;;;;;;;5070733;28;20824;-84
2022/12/15 15:03:23;;;;;;;35.77;18.87;;;;;;;;;;5071293;28;20252;-84
2022/12/15 15:05:54;;;;;;;34.20;18.30;;;;;;;;;;5070755;28;20687;-83
2022/12/15 15:08:26;;;;;;;31.83;17.80;;;;;;;;;;5071291;28;20233;-84
2022/12/15 15:10:54;;;;;;;38.20;19.13;;;;;;;;;;5070470;28;20234;-84
2022/12/15 15:13:23;;;;;;;33.57;18.30;;;;;;;;;;5071269;28;20669;-83
2022/12/15 15:15:54;;;;;;;28.30;16.97;;;;;;;;;;5070660;28;20753;-84
2022/12/15 15:18:26;;;;;;;31.57;18.17;;;;;;;;;;5070684;28;20664;-84
2022/12/15 15:20:56;;;;;;;36.17;19.07;;;;;;;;;;5070700;28;20244;-84
2022/12/15 15:23:23;;;;;;;30.43;18.13;;;;;;;;;;5071706;28;20198;-83
2022/12/15 15:25:52;;;;;;;34.30;18.63;;;;;;;;;;5070455;28;20241;-84
2022/12/15 15:28:24;;;;;;;32.27;19.17;;;;;;;;;;5070797;28;20209;-84
2022/12/15 15:30:52;;;;;;;41.88;21.38;;;;;;;;;;5069912;28;20697;-84
2022/12/15 15:33:19;;;;;;;33.47;20.27;;;;;;;;;;5070763;28;20212;-84
2022/12/15 15:35:50;;;;;;;36.50;18.93;;;;;;;;;;5070469;28;20255;-84
2022/12/15 15:38:20;;;;;;;33.70;17.80;;;;;;;;;;5070522;28;20215;-84
2022/12/15 15:40:51;;;;;;;35.40;18.30;;;;;;;;;;5070524;28;20237;-84
2022/12/15 15:43:18;;;;;;;27.83;16.80;;;;;;;;;;5070834;28;20209;-83
2022/12/15 15:45:46;;;;;;;34.00;17.03;;;;;;;;;;5070587;28;20239;-83
2022/12/15 15:48:16;;;;;;;33.43;18.73;;;;;;;;;;5071478;28;20216;-82
2022/12/15 15:50:46;;;;;;;28.80;16.23;;;;;;;;;;5070442;28;20248;-82
2022/12/15 15:53:16;;;;;;;32.57;17.93;;;;;;;;;;5070689;28;20688;-83
2022/12/15 15:55:43;;;;;;;32.50;19.13;;;;;;;;;;5070995;28;20233;-83
2022/12/15 15:58:11;;;;;;;36.27;18.27;;;;;;;;;;5070096;28;20584;-83
2022/12/15 16:00:38;;;;;;;36.00;18.30;;;;;;;;;;5069873;28;20244;-83
2022/12/15 16:03:05;;;;;;;36.43;18.97;;;;;;;;;;5070930;28;20212;-82
2022/12/15 16:05:32;;;;;;;40.93;19.27;;;;;;;;;;5070201;28;20232;-82
2022/12/15 16:08:00;;;;;;;31.67;17.37;;;;;;;;;;5072999;28;20216;-83
2022/12/15 16:10:28;;;;;;;36.80;18.27;;;;;;;;;;5073862;28;20233;-83
2022/12/15 16:12:57;;;;;;;34.37;18.27;;;;;;;;;;5074654;28;20657;-82
2022/12/15 16:15:25;;;;;;;37.67;19.07;;;;;;;;;;5073782;28;20244;-83
2022/12/15 16:17:53;;;;;;;37.93;18.67;;;;;;;;;;5074326;28;20280;-82
2022/12/15 16:20:21;;;;;;;42.43;18.50;;;;;;;;;;5073718;28;20227;-82
2022/12/15 16:22:50;;;;;;;35.37;19.17;;;;;;;;;;5074454;28;20575;-82
2022/12/15 16:25:20;;;;;;;38.53;18.57;;;;;;;;;;5073829;28;20212;-82
2022/12/15 16:27:48;;;;;;;36.17;19.23;;;;;;;;;;5074314;28;20209;-82
2022/12/15 16:30:17;;;;;;;39.73;19.83;;;;;;;;;;5073772;28;20244;-83
2022/12/15 16:32:44;;;;;;;44.60;19.97;;;;;;;;;;5074152;28;20215;-83
2022/12/15 16:35:12;;;;;;;37.63;19.00;;;;;;;;;;5073370;28;20205;-82
2022/12/15 16:37:45;;;;;;;35.27;19.53;;;;;;;;;;5073634;28;20729;-82
2022/12/15 16:40:19;;;;;;;37.57;19.87;;;;;;;;;;5073169;28;20245;-82
2022/12/15 16:42:52;;;;;;;34.77;18.43;;;;;;;;;;5075758;28;20200;-83
2022/12/15 16:45:20;;;;;;;32.13;18.07;;;;;;;;;;5092724;28;20204;-83
2022/12/15 16:47:47;;;;;;;39.37;18.77;;;;;;;;;;5093923;28;20204;-82
2022/12/15 16:50:14;;;;;;;33.90;18.13;;;;;;;;;;5093030;28;20700;-82
2022/12/15 16:52:42;;;;;;;37.70;18.03;;;;;;;;;;5093774;28;20216;-83
2022/12/15 16:55:17;;;;;;;36.23;19.97;;;;;;;;;;5093310;28;20212;-82